Terminal Aerodrome Forecast
Issued by NWS Sioux Falls, SD

Home | Current Version | Previous Version | Graphics & Text | Print | Product List | Glossary Off
Versions: 1 2 3 4 5 6 7 8 9 10 11 12 13 14 15

000
FTUS43 KFSD 311734
TAFHON
TAF
KHON 311734Z 3118/0118 26009KT P6SM SCT150
     FM312000 30008KT P6SM OVC100
     FM312300 31010KT P6SM BKN070
     FM010300 32005KT P6SM BKN070
     FM010800 29010KT P6SM BKN120=

USA.gov is the U.S. government's official web portal to all federal, state and local government web resources and services.